Time;durP1;ratioP1;P1;durP2;ratioP2;P2;SDS_P1;SDS_P2;PMS_P1;PMS_P2;Temp;Humidity;BMP_temperature;BMP_pressure;BME280_temperature;BME280_humidity;BME280_pressure;Samples;Min_cycle;Max_cycle;Signal;HPM_P1;HPM_P2
2023/01/29 00:01:03;;;;;;;0.97;0.97;;;;;;;;;;4854450;29;20330;-60
2023/01/29 00:03:30;;;;;;;2.20;2.00;;;;;;;;;;4857032;29;20229;-61
2023/01/29 00:05:57;;;;;;;2.60;2.40;;;;;;;;;;4854649;29;20233;-60
2023/01/29 00:08:24;;;;;;;2.37;1.80;;;;;;;;;;4856716;29;20215;-61
2023/01/29 00:10:53;;;;;;;1.63;1.50;;;;;;;;;;4857530;29;20790;-60
2023/01/29 00:13:20;;;;;;;1.70;1.43;;;;;;;;;;4856968;29;20568;-61
2023/01/29 00:15:54;;;;;;;0.90;0.70;;;;;;;;;;4857888;29;20228;-61
2023/01/29 00:18:21;;;;;;;1.93;1.83;;;;;;;;;;4844488;29;20212;-60
2023/01/29 00:20:48;;;;;;;1.20;0.97;;;;;;;;;;4855893;29;20701;-60
2023/01/29 00:23:16;;;;;;;2.30;2.03;;;;;;;;;;4855523;29;20395;-60
2023/01/29 00:25:43;;;;;;;1.00;0.90;;;;;;;;;;4856711;29;20212;-60
2023/01/29 00:28:11;;;;;;;0.30;0.30;;;;;;;;;;4856221;29;20712;-60
2023/01/29 00:30:38;;;;;;;1.47;1.37;;;;;;;;;;4856939;29;20263;-60
2023/01/29 00:33:06;;;;;;;1.37;0.90;;;;;;;;;;4853315;29;20818;-61
2023/01/29 00:35:33;;;;;;;1.23;0.70;;;;;;;;;;4856396;29;20213;-60
2023/01/29 00:38:03;;;;;;;2.30;1.80;;;;;;;;;;4856446;29;20223;-61
2023/01/29 00:44:56;;;;;;;1.47;1.47;;;;;;;;;;4855592;29;20297;-60
2023/01/29 00:46:05;;;;;;;0.87;0.50;;;;;;;;;;4855993;29;20217;-61
2023/01/29 00:48:32;;;;;;;1.60;1.13;;;;;;;;;;4855918;29;20755;-61
2023/01/29 00:51:00;;;;;;;0.80;0.80;;;;;;;;;;4855429;29;20310;-61
2023/01/29 00:53:27;;;;;;;0.67;0.67;;;;;;;;;;4856235;29;20223;-61
2023/01/29 00:55:54;;;;;;;1.17;0.60;;;;;;;;;;4855573;29;20251;-59
2023/01/29 00:58:27;;;;;;;0.83;0.83;;;;;;;;;;4856029;29;20241;-60
2023/01/29 01:00:55;;;;;;;1.27;0.80;;;;;;;;;;4854491;29;20250;-60
2023/01/29 01:03:21;;;;;;;1.40;1.40;;;;;;;;;;4856429;29;20226;-59
2023/01/29 01:05:48;;;;;;;2.07;1.40;;;;;;;;;;4855897;29;20206;-60
2023/01/29 01:11:00;;;;;;;1.50;1.50;;;;;;;;;;4855885;29;20248;-60
2023/01/29 01:13:29;;;;;;;1.53;1.43;;;;;;;;;;4855819;29;20219;-60
2023/01/29 01:15:56;;;;;;;3.60;1.63;;;;;;;;;;4856477;29;20218;-60
2023/01/29 01:18:23;;;;;;;1.47;1.43;;;;;;;;;;4856014;29;20691;-60
2023/01/29 01:20:50;;;;;;;1.80;1.47;;;;;;;;;;4854347;29;20242;-60
2023/01/29 01:23:18;;;;;;;2.27;2.07;;;;;;;;;;4855218;29;20342;-60
2023/01/29 01:25:45;;;;;;;1.13;1.13;;;;;;;;;;4853987;29;20211;-60
2023/01/29 01:28:13;;;;;;;3.10;1.63;;;;;;;;;;4855973;29;20310;-60
2023/01/29 01:30:41;;;;;;;2.33;1.50;;;;;;;;;;4854514;29;20286;-60
2023/01/29 01:33:08;;;;;;;1.50;1.40;;;;;;;;;;4854865;29;20226;-60
2023/01/29 01:35:35;;;;;;;1.57;1.53;;;;;;;;;;4855990;29;20210;-60
2023/01/29 01:38:03;;;;;;;1.90;1.50;;;;;;;;;;4855943;29;20241;-60
2023/01/29 01:40:30;;;;;;;1.90;1.80;;;;;;;;;;4855526;29;20238;-60
2023/01/29 01:42:58;;;;;;;1.90;1.63;;;;;;;;;;4855853;29;20226;-61
2023/01/29 01:45:26;;;;;;;1.97;1.77;;;;;;;;;;4855724;29;20740;-60
2023/01/29 01:47:56;;;;;;;1.30;1.30;;;;;;;;;;4855534;29;20216;-61
2023/01/29 01:50:25;;;;;;;0.80;0.80;;;;;;;;;;4856040;29;20215;-61
2023/01/29 01:52:53;;;;;;;0.80;0.80;;;;;;;;;;4855905;29;20211;-60
2023/01/29 01:55:23;;;;;;;0.73;0.67;;;;;;;;;;4855167;29;20515;-61
2023/01/29 01:57:53;;;;;;;0.80;0.73;;;;;;;;;;4853053;29;21848;-61
2023/01/29 02:00:21;;;;;;;1.10;0.90;;;;;;;;;;4854679;29;20271;-61
2023/01/29 02:11:10;;;;;;;1.50;1.40;;;;;;;;;;4855405;29;20294;-61
2023/01/29 02:13:37;;;;;;;1.43;1.43;;;;;;;;;;4855387;29;20294;-61
2023/01/29 02:16:04;;;;;;;1.13;1.13;;;;;;;;;;4853788;29;20213;-61
2023/01/29 02:18:36;;;;;;;1.73;1.60;;;;;;;;;;4853707;29;20589;-60
2023/01/29 02:21:14;;;;;;;1.40;1.37;;;;;;;;;;4855242;29;20251;-60
2023/01/29 02:23:58;;;;;;;2.07;1.00;;;;;;;;;;4835454;29;20262;-61
2023/01/29 02:26:43;;;;;;;1.10;1.10;;;;;;;;;;4850430;29;20218;-61
2023/01/29 02:29:22;;;;;;;1.40;1.30;;;;;;;;;;4855273;29;20222;-60
2023/01/29 02:31:52;;;;;;;2.43;1.30;;;;;;;;;;4853533;29;20214;-60
2023/01/29 02:34:23;;;;;;;1.23;1.23;;;;;;;;;;4855457;29;20403;-60
2023/01/29 02:36:51;;;;;;;1.33;1.23;;;;;;;;;;4854860;29;20222;-61
2023/01/29 02:39:23;;;;;;;1.80;1.70;;;;;;;;;;4842627;29;20842;-61
2023/01/29 02:41:56;;;;;;;1.67;1.57;;;;;;;;;;4855647;29;20673;-60
2023/01/29 02:44:26;;;;;;;2.80;2.13;;;;;;;;;;4852900;29;20221;-61
2023/01/29 02:46:58;;;;;;;1.57;1.40;;;;;;;;;;4852721;29;20219;-61
2023/01/29 02:49:28;;;;;;;1.60;1.50;;;;;;;;;;4855229;29;20216;-61
2023/01/29 02:52:00;;;;;;;2.33;1.30;;;;;;;;;;4855249;29;20212;-60
2023/01/29 02:54:31;;;;;;;1.93;1.83;;;;;;;;;;4851727;29;20222;-61
2023/01/29 02:57:00;;;;;;;1.57;1.47;;;;;;;;;;4857344;29;20322;-61
2023/01/29 02:59:31;;;;;;;1.57;1.43;;;;;;;;;;4858647;29;20229;-61
2023/01/29 03:02:01;;;;;;;2.80;2.10;;;;;;;;;;4858475;29;20203;-62
2023/01/29 03:04:30;;;;;;;2.10;1.90;;;;;;;;;;4858630;29;20218;-61
2023/01/29 03:06:59;;;;;;;1.67;1.57;;;;;;;;;;4858340;29;20220;-61
2023/01/29 03:09:30;;;;;;;1.73;1.63;;;;;;;;;;4858554;29;20222;-60
2023/01/29 03:11:59;;;;;;;1.70;1.60;;;;;;;;;;4858096;29;20299;-61
2023/01/29 03:15:10;;;;;;;1.27;1.27;;;;;;;;;;4858618;29;20220;-61
2023/01/29 03:17:19;;;;;;;2.20;2.00;;;;;;;;;;4857257;29;20219;-60
2023/01/29 03:19:47;;;;;;;1.63;1.57;;;;;;;;;;4854764;29;20219;-61
2023/01/29 03:22:15;;;;;;;2.53;1.53;;;;;;;;;;4854966;29;20789;-60
2023/01/29 03:33:06;;;;;;;1.80;1.70;;;;;;;;;;4857713;29;20597;-60
2023/01/29 03:35:37;;;;;;;2.27;1.50;;;;;;;;;;4858017;29;20213;-60
2023/01/29 03:38:04;;;;;;;1.57;1.47;;;;;;;;;;4857794;29;20219;-60
2023/01/29 03:40:36;;;;;;;1.87;1.77;;;;;;;;;;4858340;29;20236;-60
2023/01/29 03:43:10;;;;;;;1.33;1.33;;;;;;;;;;4854372;29;20223;-60
2023/01/29 03:45:41;;;;;;;1.20;1.20;;;;;;;;;;4858234;29;20222;-60
2023/01/29 03:48:12;;;;;;;2.77;1.50;;;;;;;;;;4857596;29;20302;-61
2023/01/29 03:50:42;;;;;;;1.70;1.60;;;;;;;;;;4857418;29;20237;-60
2023/01/29 03:53:21;;;;;;;1.60;1.50;;;;;;;;;;4850558;29;20219;-61
2023/01/29 03:55:54;;;;;;;1.87;1.70;;;;;;;;;;4857381;29;20823;-61
2023/01/29 03:58:24;;;;;;;1.63;1.53;;;;;;;;;;4857605;29;20267;-61
2023/01/29 04:00:54;;;;;;;1.50;1.40;;;;;;;;;;4857622;29;20287;-60
2023/01/29 04:03:24;;;;;;;1.20;1.10;;;;;;;;;;4857522;29;20216;-60
2023/01/29 04:05:52;;;;;;;1.77;1.67;;;;;;;;;;4856758;29;20686;-60
2023/01/29 04:08:23;;;;;;;1.10;1.10;;;;;;;;;;4857537;29;20215;-61
2023/01/29 04:10:51;;;;;;;1.20;1.20;;;;;;;;;;4855018;29;20215;-60
2023/01/29 04:13:18;;;;;;;0.87;0.87;;;;;;;;;;4852060;29;20214;-60
2023/01/29 04:15:47;;;;;;;1.27;1.17;;;;;;;;;;4853300;29;21029;-60
2023/01/29 04:18:14;;;;;;;1.30;1.17;;;;;;;;;;4856934;29;20218;-60
2023/01/29 04:20:43;;;;;;;0.90;0.90;;;;;;;;;;4855390;29;20256;-60
2023/01/29 04:23:20;;;;;;;1.17;1.13;;;;;;;;;;4855258;29;20248;-61
2023/01/29 04:25:48;;;;;;;0.83;0.83;;;;;;;;;;4850002;29;20625;-60
2023/01/29 04:28:17;;;;;;;1.70;1.60;;;;;;;;;;4854356;29;20221;-65
2023/01/29 04:30:47;;;;;;;1.00;1.00;;;;;;;;;;4855782;29;20259;-61
2023/01/29 04:33:21;;;;;;;4.53;1.67;;;;;;;;;;4856863;29;20951;-60
2023/01/29 04:35:58;;;;;;;1.00;1.00;;;;;;;;;;4856774;29;20207;-60
2023/01/29 04:38:31;;;;;;;1.70;1.60;;;;;;;;;;4856506;29;20230;-61
2023/01/29 04:41:01;;;;;;;1.70;1.60;;;;;;;;;;4856204;29;20246;-60
2023/01/29 04:43:30;;;;;;;1.13;1.10;;;;;;;;;;4856646;29;20227;-61
2023/01/29 04:46:05;;;;;;;2.63;1.73;;;;;;;;;;4856552;29;20218;-61
2023/01/29 04:48:39;;;;;;;1.30;1.20;;;;;;;;;;4856486;29;20230;-60
2023/01/29 04:51:11;;;;;;;2.27;1.33;;;;;;;;;;4856249;29;20274;-60
2023/01/29 04:53:42;;;;;;;2.37;2.07;;;;;;;;;;4855604;29;20590;-60
2023/01/29 04:56:14;;;;;;;2.03;1.83;;;;;;;;;;4855965;29;20215;-60
2023/01/29 04:58:44;;;;;;;3.30;2.30;;;;;;;;;;4856218;29;20261;-60
2023/01/29 05:01:13;;;;;;;1.80;1.70;;;;;;;;;;4856102;29;20249;-61
2023/01/29 05:03:41;;;;;;;1.43;1.33;;;;;;;;;;4854806;29;20218;-60
2023/01/29 05:06:10;;;;;;;3.47;2.00;;;;;;;;;;4856421;29;20214;-61
2023/01/29 05:08:38;;;;;;;2.13;1.83;;;;;;;;;;4855398;29;20246;-61
2023/01/29 05:11:05;;;;;;;2.23;1.97;;;;;;;;;;4856303;29;20734;-61
2023/01/29 05:13:34;;;;;;;4.50;2.00;;;;;;;;;;4855937;29;20232;-61
2023/01/29 05:16:03;;;;;;;1.30;1.30;;;;;;;;;;4837832;29;20222;-60
2023/01/29 05:18:30;;;;;;;1.37;1.27;;;;;;;;;;4855338;29;20250;-61
2023/01/29 05:20:57;;;;;;;1.63;1.53;;;;;;;;;;4855731;29;20243;-60
2023/01/29 05:23:26;;;;;;;2.10;2.00;;;;;;;;;;4855749;29;20248;-60
2023/01/29 05:25:53;;;;;;;3.97;2.37;;;;;;;;;;4855741;29;20306;-60
2023/01/29 05:28:19;;;;;;;1.97;1.83;;;;;;;;;;4855987;29;20212;-60
2023/01/29 05:30:47;;;;;;;1.47;1.43;;;;;;;;;;4855378;29;20572;-60
2023/01/29 05:33:15;;;;;;;2.13;2.00;;;;;;;;;;4855280;29;20227;-60
2023/01/29 05:35:42;;;;;;;2.17;1.97;;;;;;;;;;4855595;29;20279;-60
2023/01/29 05:38:10;;;;;;;2.83;1.57;;;;;;;;;;4855674;29;20221;-60
2023/01/29 05:40:38;;;;;;;1.47;1.43;;;;;;;;;;4855399;29;20223;-61
2023/01/29 05:43:06;;;;;;;1.90;1.63;;;;;;;;;;4854963;29;20230;-60
2023/01/29 05:45:33;;;;;;;1.40;1.30;;;;;;;;;;4855517;29;20212;-61
2023/01/29 05:48:00;;;;;;;1.77;1.73;;;;;;;;;;4855364;29;20219;-60
2023/01/29 05:50:28;;;;;;;1.80;1.70;;;;;;;;;;4855419;29;20208;-60
2023/01/29 05:52:59;;;;;;;1.93;1.77;;;;;;;;;;4855532;29;20224;-61
2023/01/29 05:55:26;;;;;;;1.23;1.23;;;;;;;;;;4854887;29;20295;-60
2023/01/29 05:57:54;;;;;;;1.20;1.20;;;;;;;;;;4855285;29;20223;-60
2023/01/29 06:00:21;;;;;;;1.30;1.30;;;;;;;;;;4855157;29;20300;-60
2023/01/29 06:02:48;;;;;;;1.57;1.47;;;;;;;;;;4854806;29;20236;-60
2023/01/29 06:05:15;;;;;;;1.70;1.33;;;;;;;;;;4855196;29;20229;-60
2023/01/29 06:07:44;;;;;;;1.50;1.40;;;;;;;;;;4853850;29;20835;-60
2023/01/29 06:10:12;;;;;;;2.23;1.87;;;;;;;;;;4855370;29;20215;-60
2023/01/29 06:12:39;;;;;;;1.60;1.30;;;;;;;;;;4854876;29;20211;-60
2023/01/29 06:15:08;;;;;;;1.67;1.57;;;;;;;;;;4854623;29;20536;-61
2023/01/29 06:17:35;;;;;;;3.20;1.87;;;;;;;;;;4854803;29;20298;-60
2023/01/29 06:20:02;;;;;;;6.43;2.20;;;;;;;;;;4854840;29;20218;-58
2023/01/29 06:22:29;;;;;;;2.03;1.93;;;;;;;;;;4850967;29;20620;-58
2023/01/29 06:24:56;;;;;;;2.97;2.03;;;;;;;;;;4854853;29;20686;-58
2023/01/29 06:27:23;;;;;;;2.80;2.13;;;;;;;;;;4853543;29;20216;-61
2023/01/29 06:29:51;;;;;;;2.33;2.17;;;;;;;;;;4855232;29;20743;-61
2023/01/29 06:32:19;;;;;;;3.40;2.07;;;;;;;;;;4846493;29;20712;-60
2023/01/29 06:34:46;;;;;;;2.47;2.10;;;;;;;;;;4859200;29;20225;-61
2023/01/29 06:37:13;;;;;;;2.67;2.47;;;;;;;;;;4858055;29;20212;-61
2023/01/29 06:39:40;;;;;;;3.07;2.47;;;;;;;;;;4840566;29;20233;-61
2023/01/29 06:42:07;;;;;;;2.80;2.60;;;;;;;;;;4844453;29;20352;-61
2023/01/29 06:44:34;;;;;;;3.30;2.50;;;;;;;;;;4859011;29;20315;-61
2023/01/29 06:47:01;;;;;;;2.63;2.43;;;;;;;;;;4857527;29;20727;-61
2023/01/29 06:49:29;;;;;;;2.83;1.90;;;;;;;;;;4858849;29;20285;-61
2023/01/29 06:51:56;;;;;;;3.03;2.70;;;;;;;;;;4857981;29;20223;-61
2023/01/29 06:54:23;;;;;;;2.10;1.97;;;;;;;;;;4857956;29;20873;-58
2023/01/29 06:56:51;;;;;;;5.10;2.37;;;;;;;;;;4857890;29;20212;-59
2023/01/29 06:59:18;;;;;;;2.80;2.60;;;;;;;;;;4857689;29;20893;-61
2023/01/29 07:01:45;;;;;;;3.87;2.23;;;;;;;;;;4857920;29;20233;-59
2023/01/29 07:04:12;;;;;;;2.77;2.57;;;;;;;;;;4857847;29;20213;-59
2023/01/29 07:06:40;;;;;;;3.03;2.60;;;;;;;;;;4857922;29;20684;-59
2023/01/29 07:09:07;;;;;;;2.97;2.77;;;;;;;;;;4857881;29;20210;-59
2023/01/29 07:11:36;;;;;;;3.30;1.43;;;;;;;;;;4857701;29;20287;-59
2023/01/29 07:14:03;;;;;;;2.43;2.20;;;;;;;;;;4857968;29;20699;-59
2023/01/29 07:16:30;;;;;;;5.13;3.57;;;;;;;;;;4857510;29;20282;-59
2023/01/29 07:18:57;;;;;;;4.50;2.70;;;;;;;;;;4857713;29;20216;-59
2023/01/29 07:21:24;;;;;;;2.03;1.87;;;;;;;;;;4857504;29;20726;-59
2023/01/29 07:23:53;;;;;;;3.47;2.73;;;;;;;;;;4857339;29;20354;-59
2023/01/29 07:26:20;;;;;;;4.43;3.23;;;;;;;;;;4857223;29;20223;-59
2023/01/29 07:28:47;;;;;;;4.50;2.77;;;;;;;;;;4857652;29;20565;-59
2023/01/29 07:31:14;;;;;;;3.10;2.07;;;;;;;;;;4857881;29;20208;-59
2023/01/29 07:33:44;;;;;;;2.60;2.40;;;;;;;;;;4856737;29;20767;-59
2023/01/29 07:36:11;;;;;;;5.10;3.20;;;;;;;;;;4857241;29;20324;-59
2023/01/29 07:38:38;;;;;;;3.27;2.67;;;;;;;;;;4857698;29;20681;-59
2023/01/29 07:41:07;;;;;;;3.83;2.87;;;;;;;;;;4857535;29;20219;-61
2023/01/29 07:43:34;;;;;;;2.93;2.63;;;;;;;;;;4856723;29;20224;-60
2023/01/29 07:46:02;;;;;;;4.13;3.50;;;;;;;;;;4856993;29;20588;-59
2023/01/29 07:48:29;;;;;;;6.43;3.07;;;;;;;;;;4857499;29;20273;-60
2023/01/29 07:50:57;;;;;;;2.93;2.63;;;;;;;;;;4857697;29;20207;-60
2023/01/29 07:53:43;;;;;;;4.43;3.00;;;;;;;;;;4856723;29;20632;-60
2023/01/29 07:56:11;;;;;;;4.50;3.33;;;;;;;;;;4857544;29;20282;-60
2023/01/29 07:58:38;;;;;;;2.90;2.60;;;;;;;;;;4856138;29;20656;-60
2023/01/29 08:01:06;;;;;;;4.87;3.17;;;;;;;;;;4857423;29;20223;-60
2023/01/29 08:03:34;;;;;;;4.13;3.73;;;;;;;;;;4856738;29;20312;-60
2023/01/29 08:06:01;;;;;;;4.03;3.63;;;;;;;;;;4857453;29;20323;-60
2023/01/29 08:08:28;;;;;;;3.43;2.70;;;;;;;;;;4856705;29;20883;-60
2023/01/29 08:10:55;;;;;;;4.90;3.30;;;;;;;;;;4856885;29;20316;-60
2023/01/29 08:13:24;;;;;;;3.13;2.83;;;;;;;;;;4856605;29;20209;-60
2023/01/29 08:15:51;;;;;;;2.63;2.40;;;;;;;;;;4856549;29;20224;-60
2023/01/29 08:18:18;;;;;;;7.30;3.73;;;;;;;;;;4857144;29;20256;-60
2023/01/29 08:20:45;;;;;;;6.03;4.10;;;;;;;;;;4856704;29;20233;-60
2023/01/29 08:23:13;;;;;;;4.17;3.77;;;;;;;;;;4856889;29;20245;-60
2023/01/29 08:25:40;;;;;;;4.43;4.00;;;;;;;;;;4853968;29;20281;-59
2023/01/29 08:28:08;;;;;;;4.57;3.47;;;;;;;;;;4856285;29;20245;-60
2023/01/29 08:30:36;;;;;;;7.73;3.67;;;;;;;;;;4855960;29;20528;-60
2023/01/29 08:33:04;;;;;;;5.83;3.20;;;;;;;;;;4856152;29;20369;-60
2023/01/29 08:35:31;;;;;;;3.67;3.03;;;;;;;;;;4855967;29;20580;-60
2023/01/29 08:37:59;;;;;;;7.33;3.07;;;;;;;;;;4852987;29;20704;-60
2023/01/29 08:40:26;;;;;;;4.00;3.03;;;;;;;;;;4855503;29;20210;-60
2023/01/29 08:42:53;;;;;;;5.57;3.50;;;;;;;;;;4855340;29;20234;-60
2023/01/29 08:45:20;;;;;;;4.50;2.90;;;;;;;;;;4855419;29;20220;-60
2023/01/29 08:47:50;;;;;;;4.57;3.10;;;;;;;;;;4854850;29;20292;-60
2023/01/29 08:50:17;;;;;;;3.23;2.77;;;;;;;;;;4852181;29;20210;-60
2023/01/29 08:52:44;;;;;;;2.73;2.53;;;;;;;;;;4856117;29;20256;-60
2023/01/29 08:55:12;;;;;;;4.10;3.10;;;;;;;;;;4853873;29;20686;-60
2023/01/29 08:57:39;;;;;;;3.13;2.87;;;;;;;;;;4855768;29;20558;-60
2023/01/29 09:00:08;;;;;;;3.07;2.77;;;;;;;;;;4855335;29;20225;-60
2023/01/29 09:02:35;;;;;;;4.10;3.70;;;;;;;;;;4860131;29;20241;-60
2023/01/29 09:05:03;;;;;;;3.47;3.17;;;;;;;;;;4861178;29;20220;-62
2023/01/29 09:07:30;;;;;;;7.20;2.70;;;;;;;;;;4855456;29;20266;-59
2023/01/29 09:09:57;;;;;;;5.43;3.93;;;;;;;;;;4855426;29;20222;-59
2023/01/29 09:12:25;;;;;;;4.10;3.23;;;;;;;;;;4855283;29;20210;-59
2023/01/29 09:14:52;;;;;;;3.73;3.13;;;;;;;;;;4855855;29;20214;-58
2023/01/29 09:17:19;;;;;;;3.17;2.87;;;;;;;;;;4852623;29;20213;-61
2023/01/29 09:19:46;;;;;;;4.13;3.10;;;;;;;;;;4854897;29;20237;-62
2023/01/29 09:22:14;;;;;;;2.67;2.47;;;;;;;;;;4854943;29;20250;-59
2023/01/29 09:24:41;;;;;;;3.73;3.30;;;;;;;;;;4855464;29;20214;-60
2023/01/29 09:27:09;;;;;;;3.00;2.70;;;;;;;;;;4856065;29;20218;-61
2023/01/29 09:29:36;;;;;;;4.13;3.43;;;;;;;;;;4855359;29;20246;-60
2023/01/29 09:32:04;;;;;;;2.73;2.50;;;;;;;;;;4855071;29;20217;-61
2023/01/29 09:34:31;;;;;;;5.00;3.20;;;;;;;;;;4855036;29;20214;-61
2023/01/29 09:36:58;;;;;;;4.87;3.57;;;;;;;;;;4852979;29;20226;-61
2023/01/29 09:39:26;;;;;;;2.97;2.73;;;;;;;;;;4855470;29;20611;-60
2023/01/29 09:41:55;;;;;;;8.97;4.40;;;;;;;;;;4851666;29;20225;-60
2023/01/29 09:44:27;;;;;;;7.07;3.80;;;;;;;;;;4855366;29;20206;-61
2023/01/29 09:46:55;;;;;;;2.30;2.10;;;;;;;;;;4855909;29;20323;-60
2023/01/29 09:49:25;;;;;;;3.27;2.87;;;;;;;;;;4854113;29;20588;-61
2023/01/29 09:51:53;;;;;;;2.57;2.33;;;;;;;;;;4853938;29;20329;-59
2023/01/29 09:54:23;;;;;;;3.33;2.77;;;;;;;;;;4855438;29;20606;-59
2023/01/29 09:56:54;;;;;;;5.37;2.73;;;;;;;;;;4854684;29;20210;-59
2023/01/29 09:59:22;;;;;;;3.10;2.80;;;;;;;;;;4855374;29;20226;-61
2023/01/29 10:02:06;;;;;;;6.90;3.77;;;;;;;;;;4852783;29;20898;-61
2023/01/29 10:04:58;;;;;;;2.97;2.60;;;;;;;;;;4852101;29;20214;-61
2023/01/29 10:07:30;;;;;;;4.77;3.00;;;;;;;;;;4855014;29;20813;-60
2023/01/29 10:10:05;;;;;;;4.30;3.27;;;;;;;;;;4854827;29;20655;-60
2023/01/29 10:12:52;;;;;;;25.57;9.37;;;;;;;;;;4855188;29;20312;-61
2023/01/29 10:15:28;;;;;;;9.27;4.20;;;;;;;;;;4855308;29;20222;-60
2023/01/29 10:18:01;;;;;;;4.53;3.00;;;;;;;;;;4854331;29;20269;-60
2023/01/29 10:20:46;;;;;;;5.03;2.77;;;;;;;;;;4854711;29;20238;-60
2023/01/29 10:23:17;;;;;;;7.00;3.17;;;;;;;;;;4848277;29;20273;-60
2023/01/29 10:26:15;;;;;;;6.70;3.10;;;;;;;;;;4855528;29;20233;-60
2023/01/29 10:28:45;;;;;;;3.27;2.77;;;;;;;;;;4854641;29;20271;-60
2023/01/29 10:31:14;;;;;;;2.70;2.50;;;;;;;;;;4853180;29;20240;-61
2023/01/29 10:33:42;;;;;;;4.90;2.93;;;;;;;;;;4854000;29;20211;-60
2023/01/29 10:36:12;;;;;;;2.17;2.07;;;;;;;;;;4854720;29;20311;-60
2023/01/29 10:38:43;;;;;;;3.37;3.00;;;;;;;;;;4854257;29;20218;-61
2023/01/29 10:41:25;;;;;;;2.30;2.10;;;;;;;;;;4854605;29;20428;-60
2023/01/29 10:44:02;;;;;;;3.63;2.80;;;;;;;;;;4853607;29;20230;-61
2023/01/29 10:46:35;;;;;;;2.77;2.00;;;;;;;;;;4853944;29;20682;-60
2023/01/29 10:49:09;;;;;;;3.83;2.63;;;;;;;;;;4854350;29;20218;-61
2023/01/29 10:51:44;;;;;;;3.37;3.07;;;;;;;;;;4840372;29;20210;-60
2023/01/29 10:54:20;;;;;;;2.80;2.60;;;;;;;;;;4848567;29;20456;-59
2023/01/29 10:56:54;;;;;;;2.83;2.17;;;;;;;;;;4854707;29;20630;-60
2023/01/29 10:59:32;;;;;;;2.53;2.43;;;;;;;;;;4854021;29;20222;-59
2023/01/29 11:02:02;;;;;;;2.43;2.27;;;;;;;;;;4851330;29;20294;-59
2023/01/29 11:04:29;;;;;;;1.90;1.80;;;;;;;;;;4850974;29;20289;-59
2023/01/29 11:06:56;;;;;;;2.43;1.87;;;;;;;;;;4853766;29;20206;-60
2023/01/29 11:09:29;;;;;;;3.73;2.57;;;;;;;;;;4853443;29;20215;-59
2023/01/29 11:11:58;;;;;;;3.07;2.77;;;;;;;;;;4853222;29;20229;-60
2023/01/29 11:14:27;;;;;;;1.77;1.67;;;;;;;;;;4849128;29;20309;-60
2023/01/29 11:16:56;;;;;;;2.60;2.40;;;;;;;;;;4853930;29;20490;-60
2023/01/29 11:19:36;;;;;;;2.90;2.60;;;;;;;;;;4857484;29;20217;-59
2023/01/29 11:22:04;;;;;;;2.23;2.07;;;;;;;;;;4853702;29;20717;-60
2023/01/29 11:24:31;;;;;;;3.40;2.83;;;;;;;;;;4856729;29;20317;-60
2023/01/29 11:26:59;;;;;;;2.70;2.50;;;;;;;;;;4856651;29;20694;-60
2023/01/29 11:29:34;;;;;;;3.20;2.87;;;;;;;;;;4856800;29;20217;-60
2023/01/29 11:32:07;;;;;;;3.10;2.70;;;;;;;;;;4855927;29;20214;-60
2023/01/29 11:34:34;;;;;;;4.03;2.70;;;;;;;;;;4853887;29;20313;-59
2023/01/29 11:37:01;;;;;;;3.40;2.77;;;;;;;;;;4856991;29;20635;-59
2023/01/29 11:39:31;;;;;;;3.30;2.50;;;;;;;;;;4856897;29;20216;-59
2023/01/29 11:41:59;;;;;;;2.67;2.47;;;;;;;;;;4856905;29;20278;-59
2023/01/29 11:44:31;;;;;;;3.57;2.60;;;;;;;;;;4857079;29;20235;-60
2023/01/29 11:47:00;;;;;;;3.13;2.93;;;;;;;;;;4857410;29;20222;-60
2023/01/29 11:49:32;;;;;;;2.57;2.37;;;;;;;;;;4857308;29;20206;-60
2023/01/29 11:52:00;;;;;;;2.67;2.47;;;;;;;;;;4856320;29;20226;-60
2023/01/29 11:54:31;;;;;;;4.13;2.57;;;;;;;;;;4856482;29;20318;-60
2023/01/29 11:56:59;;;;;;;4.43;2.43;;;;;;;;;;4856854;29;20218;-60
2023/01/29 11:59:29;;;;;;;3.50;2.80;;;;;;;;;;4856558;29;20219;-60
2023/01/29 12:01:57;;;;;;;2.97;2.10;;;;;;;;;;4854212;29;20266;-60
2023/01/29 12:04:25;;;;;;;3.10;2.80;;;;;;;;;;4856579;29;20306;-61
2023/01/29 12:06:54;;;;;;;2.37;2.13;;;;;;;;;;4857049;29;20681;-60
2023/01/29 12:09:22;;;;;;;2.20;2.13;;;;;;;;;;4856055;29;20219;-60
2023/01/29 12:11:50;;;;;;;2.60;2.23;;;;;;;;;;4852909;29;20275;-60
2023/01/29 12:14:32;;;;;;;2.63;2.43;;;;;;;;;;4852506;29;20266;-61
2023/01/29 12:17:00;;;;;;;2.50;2.30;;;;;;;;;;4856263;29;20627;-60
2023/01/29 12:19:30;;;;;;;2.27;2.17;;;;;;;;;;4856387;29;20537;-60
2023/01/29 12:22:00;;;;;;;2.53;2.33;;;;;;;;;;4852478;29;20777;-60
2023/01/29 12:24:31;;;;;;;2.27;2.07;;;;;;;;;;4855235;29;20242;-60
2023/01/29 12:27:02;;;;;;;2.20;2.10;;;;;;;;;;4856456;29;20246;-60
2023/01/29 12:29:34;;;;;;;3.70;2.60;;;;;;;;;;4855629;29;20587;-60
2023/01/29 12:32:06;;;;;;;2.10;1.90;;;;;;;;;;4856436;29;20237;-60
2023/01/29 12:34:38;;;;;;;2.77;2.57;;;;;;;;;;4856508;29;20218;-60
2023/01/29 12:37:12;;;;;;;2.73;2.53;;;;;;;;;;4856698;29;20266;-60
2023/01/29 12:39:39;;;;;;;2.90;2.63;;;;;;;;;;4856353;29;20205;-60
2023/01/29 12:42:12;;;;;;;2.03;1.83;;;;;;;;;;4856316;29;20218;-60
2023/01/29 12:44:41;;;;;;;2.60;2.40;;;;;;;;;;4855419;29;20234;-60
2023/01/29 12:47:11;;;;;;;2.60;2.40;;;;;;;;;;4849580;29;20219;-60
2023/01/29 12:49:40;;;;;;;2.43;2.33;;;;;;;;;;4851809;29;20215;-60
2023/01/29 12:52:12;;;;;;;2.80;2.47;;;;;;;;;;4853256;29;20225;-60
2023/01/29 12:54:41;;;;;;;2.60;2.43;;;;;;;;;;4855733;29;20285;-61
2023/01/29 12:57:11;;;;;;;3.23;2.30;;;;;;;;;;4854407;29;20218;-61
2023/01/29 12:59:42;;;;;;;2.27;2.17;;;;;;;;;;4841975;29;20469;-61
2023/01/29 13:02:15;;;;;;;3.77;3.17;;;;;;;;;;4853864;29;20941;-61
2023/01/29 13:04:44;;;;;;;3.73;2.90;;;;;;;;;;4863433;29;20291;-61
2023/01/29 13:07:14;;;;;;;4.90;2.37;;;;;;;;;;4854955;29;20790;-61
2023/01/29 13:09:44;;;;;;;3.10;2.80;;;;;;;;;;4854823;29;20216;-61
2023/01/29 13:12:13;;;;;;;4.80;2.83;;;;;;;;;;4855344;29;20222;-61
2023/01/29 13:14:44;;;;;;;2.33;2.13;;;;;;;;;;4855555;29;20214;-62
2023/01/29 13:17:14;;;;;;;3.13;2.83;;;;;;;;;;4856141;29;20652;-61
2023/01/29 13:19:44;;;;;;;2.93;2.63;;;;;;;;;;4855922;29;20206;-61
2023/01/29 13:22:16;;;;;;;6.70;2.17;;;;;;;;;;4855677;29;20306;-61
2023/01/29 13:24:43;;;;;;;4.10;2.63;;;;;;;;;;4856286;29;20234;-61
2023/01/29 13:27:20;;;;;;;2.20;2.10;;;;;;;;;;4855923;29;20871;-61
2023/01/29 13:29:48;;;;;;;3.57;2.37;;;;;;;;;;4855422;29;20208;-62
2023/01/29 13:32:20;;;;;;;2.63;2.43;;;;;;;;;;4855398;29;20733;-61
2023/01/29 13:34:49;;;;;;;3.60;2.80;;;;;;;;;;4849245;29;20271;-61
2023/01/29 13:37:22;;;;;;;4.37;3.20;;;;;;;;;;4854011;29;20309;-61
2023/01/29 13:39:51;;;;;;;5.40;2.87;;;;;;;;;;4853551;29;20215;-61
2023/01/29 13:42:18;;;;;;;2.80;2.60;;;;;;;;;;4849187;29;20215;-61
2023/01/29 13:44:48;;;;;;;2.70;2.53;;;;;;;;;;4850898;29;20226;-61
2023/01/29 13:47:22;;;;;;;2.93;2.63;;;;;;;;;;4855929;29;20952;-61
2023/01/29 13:49:55;;;;;;;2.70;2.50;;;;;;;;;;4854678;29;20673;-62
2023/01/29 13:52:28;;;;;;;2.37;2.17;;;;;;;;;;4852929;29;20313;-62
2023/01/29 13:54:57;;;;;;;4.53;2.57;;;;;;;;;;4843253;29;20217;-61
2023/01/29 13:57:46;;;;;;;1.80;1.70;;;;;;;;;;4855452;29;20276;-61
2023/01/29 14:00:29;;;;;;;2.40;1.77;;;;;;;;;;4855911;29;20247;-62
2023/01/29 14:03:11;;;;;;;2.30;2.20;;;;;;;;;;4855066;29;20234;-60
2023/01/29 14:05:40;;;;;;;1.83;1.73;;;;;;;;;;4853533;29;20398;-59
2023/01/29 14:08:29;;;;;;;8.40;4.47;;;;;;;;;;4855129;29;20214;-59
2023/01/29 14:11:11;;;;;;;2.10;2.00;;;;;;;;;;4855138;29;20218;-60
2023/01/29 14:13:38;;;;;;;2.60;2.40;;;;;;;;;;4853581;29;20206;-60
2023/01/29 14:16:19;;;;;;;2.40;2.30;;;;;;;;;;4851627;29;20210;-60
2023/01/29 14:18:47;;;;;;;2.00;1.90;;;;;;;;;;4853453;29;20211;-60
2023/01/29 14:21:38;;;;;;;2.43;2.27;;;;;;;;;;4854979;29;20231;-60
2023/01/29 14:24:16;;;;;;;2.50;2.30;;;;;;;;;;4854566;29;20267;-60
2023/01/29 14:26:46;;;;;;;1.70;1.60;;;;;;;;;;4854736;29;20221;-60
2023/01/29 14:29:18;;;;;;;3.40;2.50;;;;;;;;;;4855874;29;20218;-60
2023/01/29 14:31:48;;;;;;;3.70;2.67;;;;;;;;;;4850914;29;20290;-60
2023/01/29 14:34:26;;;;;;;3.13;1.70;;;;;;;;;;4854675;29;20210;-59
2023/01/29 14:36:55;;;;;;;2.07;1.97;;;;;;;;;;4854994;29;20261;-62
2023/01/29 14:39:39;;;;;;;2.60;2.40;;;;;;;;;;4854983;29;20677;-61
2023/01/29 14:42:23;;;;;;;2.37;2.17;;;;;;;;;;4855407;29;20222;-61
2023/01/29 14:44:59;;;;;;;3.90;2.33;;;;;;;;;;4853361;29;20229;-62
2023/01/29 14:47:50;;;;;;;2.97;2.67;;;;;;;;;;4854762;29;20218;-61
2023/01/29 14:50:50;;;;;;;2.10;1.90;;;;;;;;;;4854482;29;20202;-61
2023/01/29 14:53:21;;;;;;;2.67;2.47;;;;;;;;;;4817913;29;20352;-64
2023/01/29 14:55:51;;;;;;;3.70;3.30;;;;;;;;;;4818267;29;20216;-59
2023/01/29 14:58:20;;;;;;;2.53;2.33;;;;;;;;;;4829548;29;20229;-61
2023/01/29 15:00:51;;;;;;;4.50;2.20;;;;;;;;;;4854697;29;20210;-61
2023/01/29 15:03:20;;;;;;;2.00;1.90;;;;;;;;;;4854779;29;20221;-61
2023/01/29 15:05:49;;;;;;;1.93;1.83;;;;;;;;;;4857872;29;20203;-60
2023/01/29 15:08:18;;;;;;;3.00;2.73;;;;;;;;;;4848076;29;20211;-62
2023/01/29 15:11:32;;;;;;;3.50;2.50;;;;;;;;;;4858368;29;20214;-61
2023/01/29 15:13:39;;;;;;;7.60;2.70;;;;;;;;;;4848987;29;20278;-60
2023/01/29 15:16:10;;;;;;;2.03;1.93;;;;;;;;;;4858191;29;20222;-63
2023/01/29 15:18:38;;;;;;;2.93;2.70;;;;;;;;;;4858469;29;20219;-62
2023/01/29 15:21:11;;;;;;;5.07;2.80;;;;;;;;;;4857983;29;20234;-63
2023/01/29 15:23:39;;;;;;;2.23;2.00;;;;;;;;;;4842860;29;20329;-63